createdAt,value
2019-01-26T00:00:48.585Z,20.65
2019-01-26T00:02:20.684Z,19.80
2019-01-26T00:03:52.956Z,20.12
2019-01-26T00:05:25.225Z,19.98
2019-01-26T00:06:57.479Z,19.40
2019-01-26T00:08:29.720Z,20.00
2019-01-26T00:10:02.044Z,20.23
2019-01-26T00:11:34.288Z,19.98
2019-01-26T00:13:06.408Z,19.65
2019-01-26T00:14:38.666Z,21.10
2019-01-26T00:16:10.952Z,21.25
2019-01-26T00:17:43.158Z,18.85
2019-01-26T00:19:15.412Z,18.67
2019-01-26T00:20:47.500Z,19.30
2019-01-26T00:22:19.811Z,20.80
2019-01-26T00:23:52.087Z,19.42
2019-01-26T00:25:24.383Z,20.62
2019-01-26T00:26:56.638Z,19.70
2019-01-26T00:28:28.868Z,20.95
2019-01-26T00:30:01.089Z,19.27
2019-01-26T00:31:33.361Z,19.40
2019-01-26T00:33:05.618Z,19.07
2019-01-26T00:34:37.779Z,19.35
2019-01-26T00:36:10.016Z,19.57
2019-01-26T00:37:42.218Z,20.08
2019-01-26T00:39:14.364Z,19.32
2019-01-26T00:40:46.570Z,19.42
2019-01-26T00:42:18.772Z,18.80
2019-01-26T00:43:51.084Z,18.95
2019-01-26T00:45:23.188Z,18.75
2019-01-26T00:46:55.472Z,19.32
2019-01-26T00:48:27.708Z,18.60
2019-01-26T00:49:59.940Z,18.05
2019-01-26T00:51:32.176Z,18.45
2019-01-26T00:53:04.450Z,19.25
2019-01-26T00:54:36.576Z,17.75
2019-01-26T00:56:08.846Z,19.62
2019-01-26T00:57:41.133Z,19.55
2019-01-26T00:59:13.409Z,19.30
2019-01-26T01:00:45.685Z,19.95
2019-01-26T01:02:17.898Z,18.17
2019-01-26T01:03:50.190Z,18.98
2019-01-26T01:05:22.412Z,18.30
2019-01-26T01:06:54.769Z,19.30
2019-01-26T01:08:27.091Z,18.67
2019-01-26T01:09:59.241Z,18.02
2019-01-26T01:11:31.489Z,18.62
2019-01-26T01:13:03.611Z,16.82
2019-01-26T01:14:35.773Z,17.85
2019-01-26T01:16:08.018Z,18.57
2019-01-26T01:17:40.316Z,17.75
2019-01-26T01:19:12.525Z,17.40
2019-01-26T01:20:44.705Z,17.50
2019-01-26T01:22:16.884Z,16.85
2019-01-26T01:23:49.188Z,17.40
2019-01-26T01:25:21.476Z,18.30
2019-01-26T01:26:53.569Z,17.20
2019-01-26T01:28:25.910Z,17.10
2019-01-26T01:29:58.184Z,16.48
2019-01-26T01:31:30.279Z,16.90
2019-01-26T01:33:02.444Z,16.82
2019-01-26T01:34:34.704Z,17.20
2019-01-26T01:36:06.937Z,16.50
2019-01-26T01:37:39.235Z,16.90
2019-01-26T01:39:11.551Z,17.15
2019-01-26T01:40:43.926Z,16.45
2019-01-26T01:42:16.121Z,16.40
2019-01-26T01:43:48.337Z,17.65
2019-01-26T01:45:20.610Z,15.78
2019-01-26T01:46:52.826Z,17.00
2019-01-26T01:48:25.077Z,17.00
2019-01-26T01:49:57.322Z,17.17
2019-01-26T01:51:29.612Z,16.25
2019-01-26T01:53:01.820Z,16.05
2019-01-26T01:54:34.072Z,16.52
2019-01-26T01:56:06.385Z,16.62
2019-01-26T01:57:38.508Z,16.35
2019-01-26T01:59:10.802Z,15.63
2019-01-26T02:00:43.029Z,15.72
2019-01-26T02:02:15.146Z,16.82
2019-01-26T02:03:47.235Z,15.65
2019-01-26T02:05:19.537Z,15.58
2019-01-26T02:06:51.668Z,15.80
2019-01-26T02:08:23.966Z,15.83
2019-01-26T02:09:56.086Z,15.83
2019-01-26T02:11:28.322Z,15.85
2019-01-26T02:13:00.521Z,14.50
2019-01-26T02:14:32.746Z,15.28
2019-01-26T02:16:05.049Z,15.50
2019-01-26T02:17:37.308Z,15.95
2019-01-26T02:19:09.610Z,15.38
2019-01-26T02:20:41.862Z,15.53
2019-01-26T02:22:14.106Z,15.95
2019-01-26T02:23:46.289Z,14.23
2019-01-26T02:25:18.630Z,14.68
2019-01-26T02:26:50.947Z,15.35
2019-01-26T02:28:23.244Z,16.35
2019-01-26T02:29:55.381Z,15.88
2019-01-26T02:31:27.549Z,15.03
2019-01-26T02:32:59.812Z,15.55
2019-01-26T02:34:32.064Z,14.90
2019-01-26T02:36:04.169Z,15.75
2019-01-26T02:37:36.391Z,15.90
2019-01-26T02:39:08.662Z,14.45
2019-01-26T02:40:40.804Z,15.15
2019-01-26T02:42:13.035Z,15.95
2019-01-26T02:43:45.184Z,14.95
2019-01-26T02:45:17.461Z,14.95
2019-01-26T02:46:49.702Z,14.58
2019-01-26T02:58:33.615Z,14.35
2019-01-26T03:00:14.083Z,13.45
2019-01-26T03:01:46.202Z,14.05
2019-01-26T03:03:18.491Z,14.30
2019-01-26T03:04:50.711Z,13.78
2019-01-26T03:06:22.918Z,14.13
2019-01-26T03:07:55.032Z,13.72
2019-01-26T03:09:27.218Z,14.35
2019-01-26T03:10:59.338Z,14.07
2019-01-26T03:12:31.624Z,14.45
2019-01-26T03:14:03.883Z,13.10
2019-01-26T03:15:36.238Z,14.03
2019-01-26T03:17:08.505Z,14.53
2019-01-26T03:18:40.804Z,14.00
2019-01-26T03:20:13.988Z,14.45
2019-01-26T03:21:46.254Z,13.68
2019-01-26T03:23:18.554Z,14.10
2019-01-26T03:24:50.849Z,13.65
2019-01-26T03:26:23.151Z,12.93
2019-01-26T03:27:55.432Z,14.35
2019-01-26T03:29:27.735Z,14.07
2019-01-26T03:31:00.006Z,12.85
2019-01-26T03:32:32.286Z,13.43
2019-01-26T03:34:04.516Z,12.95
2019-01-26T03:35:36.694Z,13.55
2019-01-26T03:37:08.854Z,13.65
2019-01-26T03:38:41.065Z,12.88
2019-01-26T03:40:15.151Z,12.25
2019-01-26T03:41:47.395Z,12.23
2019-01-26T03:43:19.871Z,12.47
2019-01-26T03:44:52.118Z,12.68
2019-01-26T03:46:24.388Z,12.55
2019-01-26T03:47:56.497Z,11.83
2019-01-26T03:49:28.784Z,12.58
2019-01-26T03:51:01.045Z,11.57
2019-01-26T03:52:33.264Z,11.73
2019-01-26T03:54:05.520Z,11.50
2019-01-26T03:55:37.802Z,11.70
2019-01-26T03:57:10.077Z,11.97
2019-01-26T03:58:42.352Z,11.70
2019-01-26T04:00:19.674Z,11.75
2019-01-26T04:01:51.948Z,11.20
2019-01-26T04:03:24.424Z,11.40
2019-01-26T04:04:57.212Z,12.10
2019-01-26T04:06:29.371Z,11.28
2019-01-26T04:08:01.608Z,11.75
2019-01-26T04:09:33.816Z,10.85
2019-01-26T04:11:06.098Z,10.28
2019-01-26T04:12:38.336Z,11.12
2019-01-26T04:14:10.628Z,10.25
2019-01-26T04:15:42.848Z,10.13
2019-01-26T04:17:21.735Z,9.83
2019-01-26T04:18:49.312Z,9.78
2019-01-26T04:20:21.696Z,9.43
2019-01-26T04:21:54.512Z,9.35
2019-01-26T04:23:26.871Z,8.83
2019-01-26T04:24:59.011Z,9.80
2019-01-26T04:26:31.147Z,10.58
2019-01-26T04:28:03.433Z,9.13
2019-01-26T04:29:35.742Z,9.80
2019-01-26T04:31:07.997Z,9.70
2019-01-26T04:32:40.251Z,9.53
2019-01-26T04:34:12.521Z,10.35
2019-01-26T04:35:44.816Z,10.05
2019-01-26T04:37:17.090Z,10.23
2019-01-26T04:38:49.367Z,10.38
2019-01-26T04:40:21.611Z,10.18
2019-01-26T04:41:53.891Z,10.70
2019-01-26T04:43:26.009Z,11.18
2019-01-26T04:44:58.268Z,11.20
2019-01-26T04:46:30.541Z,10.65
2019-01-26T04:48:02.974Z,10.43
2019-01-26T04:49:35.093Z,11.18
2019-01-26T04:51:07.404Z,10.93
2019-01-26T04:52:39.687Z,11.03
2019-01-26T04:54:11.932Z,11.05
2019-01-26T04:55:44.088Z,11.22
2019-01-26T04:57:16.314Z,11.53
2019-01-26T04:58:48.586Z,11.03
2019-01-26T05:00:22.894Z,10.60
2019-01-26T05:01:55.170Z,11.63
2019-01-26T05:03:27.424Z,11.25
2019-01-26T05:04:59.691Z,11.70
2019-01-26T05:06:31.948Z,11.05
2019-01-26T05:08:04.216Z,11.18
2019-01-26T05:09:36.467Z,10.82
2019-01-26T05:11:09.438Z,11.70
2019-01-26T05:12:41.725Z,11.28
2019-01-26T05:14:14.002Z,11.00
2019-01-26T05:15:46.264Z,11.53
2019-01-26T05:17:18.511Z,11.38
2019-01-26T05:18:50.617Z,12.15
2019-01-26T05:20:24.054Z,11.30
2019-01-26T05:21:56.182Z,11.55
2019-01-26T05:23:28.262Z,11.73
2019-01-26T05:25:00.590Z,12.50
2019-01-26T05:26:32.723Z,12.37
2019-01-26T05:28:04.828Z,12.18
2019-01-26T05:29:37.079Z,13.00
2019-01-26T05:31:09.338Z,13.05
2019-01-26T05:32:41.549Z,11.78
2019-01-26T05:34:13.737Z,11.70
2019-01-26T05:35:46.106Z,11.70
2019-01-26T05:37:18.409Z,12.50
2019-01-26T05:38:50.684Z,12.70
2019-01-26T05:40:22.844Z,13.58
2019-01-26T05:41:55.107Z,12.68
2019-01-26T05:43:27.364Z,12.85
2019-01-26T05:44:59.617Z,12.85
2019-01-26T05:46:31.899Z,13.80
2019-01-26T05:48:04.306Z,13.88
2019-01-26T05:49:36.423Z,14.38
2019-01-26T05:51:08.543Z,14.18
2019-01-26T05:52:40.677Z,14.73
2019-01-26T05:54:12.971Z,14.07
2019-01-26T05:55:45.966Z,13.72
2019-01-26T05:57:18.093Z,13.65
2019-01-26T05:58:50.352Z,14.50
2019-01-26T06:00:27.334Z,14.00
2019-01-26T06:01:59.524Z,13.83
2019-01-26T06:03:31.629Z,14.68
2019-01-26T06:05:04.341Z,13.83
2019-01-26T06:06:36.549Z,13.90
2019-01-26T06:08:08.819Z,14.15
2019-01-26T06:09:41.044Z,15.58
2019-01-26T06:11:13.331Z,14.20
2019-01-26T06:12:45.542Z,14.73
2019-01-26T06:14:17.890Z,14.00
2019-01-26T06:15:50.173Z,14.43
2019-01-26T06:17:22.494Z,14.20
2019-01-26T06:18:54.732Z,14.93
2019-01-26T06:20:27.018Z,15.15
2019-01-26T06:21:59.237Z,14.47
2019-01-26T06:23:31.529Z,14.00
2019-01-26T06:25:04.550Z,14.03
2019-01-26T06:26:36.792Z,13.70
2019-01-26T06:28:09.637Z,14.53
2019-01-26T06:29:41.780Z,14.40
2019-01-26T06:31:14.054Z,12.98
2019-01-26T06:32:46.189Z,14.78
2019-01-26T06:34:18.405Z,14.65
2019-01-26T06:35:50.543Z,13.65
2019-01-26T06:37:22.729Z,14.73
2019-01-26T06:38:54.936Z,14.10
2019-01-26T06:40:27.096Z,14.75
2019-01-26T06:41:59.343Z,14.68
2019-01-26T06:43:31.477Z,13.55
2019-01-26T06:45:03.930Z,13.93
2019-01-26T06:46:36.070Z,13.90
2019-01-26T06:48:08.307Z,13.53
2019-01-26T06:49:40.558Z,13.05
2019-01-26T06:51:12.820Z,13.88
2019-01-26T06:52:45.092Z,14.55
2019-01-26T06:54:17.329Z,14.45
2019-01-26T06:55:49.586Z,13.48
2019-01-26T06:57:21.676Z,14.80
2019-01-26T06:58:53.936Z,13.65
2019-01-26T07:00:30.557Z,13.13
2019-01-26T07:02:02.978Z,13.18
2019-01-26T07:03:35.113Z,13.68
2019-01-26T07:05:25.656Z,13.10
2019-01-26T07:07:09.714Z,12.98
2019-01-26T07:08:42.092Z,13.58
2019-01-26T07:10:14.339Z,12.68
2019-01-26T07:11:46.580Z,14.33
2019-01-26T07:13:18.816Z,12.65
2019-01-26T07:14:50.962Z,13.25
2019-01-26T07:16:24.895Z,12.20
2019-01-26T07:17:57.198Z,11.85
2019-01-26T07:19:29.315Z,11.95
2019-01-26T07:21:01.451Z,11.97
2019-01-26T07:22:33.701Z,12.25
2019-01-26T07:24:05.812Z,12.53
2019-01-26T07:25:38.064Z,11.28
2019-01-26T07:27:10.374Z,12.25
2019-01-26T07:28:42.594Z,12.03
2019-01-26T07:30:16.822Z,12.23
2019-01-26T07:31:49.098Z,11.45
2019-01-26T07:33:21.373Z,11.70
2019-01-26T07:34:53.687Z,12.23
2019-01-26T07:36:25.980Z,11.38
2019-01-26T07:37:58.271Z,11.70
2019-01-26T07:39:30.532Z,11.10
2019-01-26T07:41:02.905Z,9.68
2019-01-26T07:42:35.184Z,9.18
2019-01-26T07:44:07.417Z,8.73
2019-01-26T07:45:39.717Z,8.68
2019-01-26T07:47:11.954Z,8.43
2019-01-26T07:48:44.559Z,8.38
2019-01-26T07:50:18.004Z,8.95
2019-01-26T07:51:50.243Z,9.80
2019-01-26T07:53:22.375Z,9.65
2019-01-26T07:54:54.747Z,9.35
2019-01-26T07:56:26.961Z,9.23
2019-01-26T07:57:59.300Z,9.08
2019-01-26T07:59:31.673Z,9.33
2019-01-26T08:01:03.896Z,9.25
2019-01-26T08:02:36.126Z,8.55
2019-01-26T08:04:08.396Z,10.15
2019-01-26T08:05:40.704Z,8.78
2019-01-26T08:07:13.059Z,9.28
2019-01-26T08:08:45.297Z,9.08
2019-01-26T08:10:19.785Z,9.20
2019-01-26T08:11:52.012Z,9.25
2019-01-26T08:13:24.296Z,9.13
2019-01-26T08:14:56.445Z,9.65
2019-01-26T08:16:28.728Z,9.73
2019-01-26T08:18:01.022Z,10.08
2019-01-26T08:19:33.328Z,11.08
2019-01-26T08:21:05.489Z,9.88
2019-01-26T08:22:37.744Z,9.63
2019-01-26T08:24:10.124Z,10.85
2019-01-26T08:25:42.310Z,11.40
2019-01-26T08:27:14.551Z,10.40
2019-01-26T08:28:46.838Z,11.50
2019-01-26T08:30:20.436Z,10.13
2019-01-26T08:31:52.698Z,10.15
2019-01-26T08:33:25.040Z,11.33
2019-01-26T08:34:57.256Z,10.72
2019-01-26T08:36:29.403Z,11.08
2019-01-26T08:38:01.664Z,11.15
2019-01-26T08:39:33.995Z,10.13
2019-01-26T08:41:06.386Z,10.63
2019-01-26T08:42:38.660Z,10.60
2019-01-26T08:44:10.885Z,11.30
2019-01-26T08:45:43.232Z,10.03
2019-01-26T08:47:15.521Z,11.08
2019-01-26T08:48:47.842Z,9.50
2019-01-26T08:50:21.834Z,10.43
2019-01-26T08:51:54.107Z,10.55
2019-01-26T08:53:26.258Z,11.38
2019-01-26T08:54:58.535Z,10.23
2019-01-26T08:56:30.798Z,10.80
2019-01-26T08:58:03.083Z,10.48
2019-01-26T08:59:35.440Z,11.95
2019-01-26T09:01:07.642Z,11.90
2019-01-26T09:03:02.241Z,11.30
2019-01-26T09:04:34.642Z,12.23
2019-01-26T09:06:23.036Z,11.25
2019-01-26T09:07:55.417Z,12.10
2019-01-26T09:09:27.762Z,12.28
2019-01-26T09:11:00.072Z,12.28
2019-01-26T09:12:32.301Z,17.57
2019-01-26T09:14:04.546Z,14.68
2019-01-26T09:15:36.865Z,12.20
2019-01-26T09:17:09.136Z,11.45
2019-01-26T09:18:41.454Z,12.43
2019-01-26T09:20:13.992Z,11.28
2019-01-26T09:21:46.118Z,11.55
2019-01-26T09:23:18.513Z,11.43
2019-01-26T09:24:50.766Z,11.38
2019-01-26T09:26:23.007Z,11.80
2019-01-26T09:27:55.452Z,11.68
2019-01-26T09:29:27.725Z,11.45
2019-01-26T09:30:59.883Z,11.63
2019-01-26T09:32:32.195Z,11.55
2019-01-26T09:34:05.016Z,11.05
2019-01-26T09:35:37.237Z,11.50
2019-01-26T09:37:09.609Z,11.03
2019-01-26T09:38:41.877Z,10.48
2019-01-26T09:40:14.692Z,10.82
2019-01-26T09:41:46.892Z,12.13
2019-01-26T09:43:19.194Z,11.30
2019-01-26T09:44:51.593Z,10.28
2019-01-26T09:46:23.850Z,11.48
2019-01-26T09:47:56.112Z,11.55
2019-01-26T09:49:28.337Z,11.70
2019-01-26T09:51:00.591Z,10.50
2019-01-26T09:52:32.871Z,9.83
2019-01-26T09:54:05.255Z,9.80
2019-01-26T09:55:37.491Z,10.70
2019-01-26T09:57:09.721Z,9.80
2019-01-26T09:58:41.964Z,9.58
2019-01-26T10:00:15.606Z,9.70
2019-01-26T10:01:47.788Z,9.23
2019-01-26T10:03:20.066Z,9.58
2019-01-26T10:04:52.335Z,9.33
2019-01-26T10:06:24.445Z,9.68
2019-01-26T10:07:56.756Z,8.58
2019-01-26T10:09:29.005Z,9.00
2019-01-26T10:11:01.416Z,8.90
2019-01-26T10:12:33.722Z,8.60
2019-01-26T10:14:05.948Z,8.35
2019-01-26T10:15:38.206Z,8.03
2019-01-26T10:17:10.464Z,7.65
2019-01-26T10:18:42.808Z,7.70
2019-01-26T10:20:20.119Z,9.08
2019-01-26T10:21:52.380Z,7.80
2019-01-26T10:23:24.616Z,8.80
2019-01-26T10:24:56.962Z,8.05
2019-01-26T10:26:29.216Z,8.35
2019-01-26T10:28:01.510Z,8.63
2019-01-26T10:29:33.841Z,8.28
2019-01-26T10:31:06.050Z,7.85
2019-01-26T10:32:38.334Z,7.95
2019-01-26T10:34:11.387Z,8.68
2019-01-26T10:36:18.157Z,8.73
2019-01-26T10:37:50.517Z,9.80
2019-01-26T10:39:22.756Z,9.23
2019-01-26T10:41:17.530Z,9.10
2019-01-26T10:42:49.781Z,9.55
2019-01-26T10:44:25.244Z,9.50
2019-01-26T10:45:57.501Z,9.53
2019-01-26T10:47:29.781Z,8.98
2019-01-26T10:49:02.005Z,9.13
2019-01-26T10:50:34.078Z,11.08
2019-01-26T10:52:06.507Z,10.10
2019-01-26T10:53:38.852Z,10.53
2019-01-26T10:55:11.101Z,10.10
2019-01-26T10:56:43.455Z,9.03
2019-01-26T10:58:15.717Z,9.70
2019-01-26T10:59:47.976Z,9.60
2019-01-26T11:01:20.307Z,10.68
2019-01-26T11:02:52.649Z,10.00
2019-01-26T11:04:24.984Z,10.38
2019-01-26T11:05:57.343Z,9.00
2019-01-26T11:07:29.440Z,10.85
2019-01-26T11:09:01.685Z,10.40
2019-01-26T11:10:33.950Z,10.00
2019-01-26T11:12:06.185Z,10.98
2019-01-26T11:13:38.741Z,10.10
2019-01-26T11:15:10.987Z,10.40
2019-01-26T11:16:43.305Z,8.20
2019-01-26T11:18:15.586Z,8.50
2019-01-26T11:19:47.925Z,8.63
2019-01-26T11:21:20.279Z,8.15
2019-01-26T11:22:52.640Z,7.65
2019-01-26T11:24:24.790Z,7.85
2019-01-26T11:25:57.087Z,8.40
2019-01-26T11:27:29.500Z,8.30
2019-01-26T11:29:01.775Z,8.18
2019-01-26T11:30:34.465Z,10.00
2019-01-26T11:32:06.651Z,8.93
2019-01-26T11:33:38.927Z,8.90
2019-01-26T11:35:11.189Z,8.93
2019-01-26T11:36:43.465Z,8.15
2019-01-26T11:38:15.713Z,8.28
2019-01-26T11:39:54.605Z,9.13
2019-01-26T11:41:26.711Z,7.70
2019-01-26T11:42:58.979Z,8.10
2019-01-26T11:44:31.167Z,13.58
2019-01-26T11:46:14.458Z,8.48
2019-01-26T11:47:46.748Z,18.95
2019-01-26T11:49:19.109Z,13.40
2019-01-26T11:50:56.210Z,10.75
2019-01-26T11:52:28.472Z,23.38
2019-01-26T11:54:00.723Z,9.00
2019-01-26T11:55:53.629Z,13.48
2019-01-26T11:57:28.631Z,9.05
2019-01-26T11:59:00.909Z,8.93
2019-01-26T12:01:04.749Z,8.65
2019-01-26T12:02:43.122Z,8.20
2019-01-26T12:04:33.304Z,8.88
2019-01-26T12:06:11.646Z,7.55
2019-01-26T12:07:44.012Z,8.83
2019-01-26T12:09:17.176Z,8.03
2019-01-26T12:10:49.498Z,8.08
2019-01-26T12:12:21.796Z,7.72
2019-01-26T12:13:53.912Z,7.95
2019-01-26T12:15:26.174Z,8.05
2019-01-26T12:16:58.349Z,7.83
2019-01-26T12:18:30.638Z,8.28
2019-01-26T12:20:03.639Z,8.10
2019-01-26T12:21:35.925Z,7.62
2019-01-26T12:23:08.131Z,7.17
2019-01-26T12:24:40.395Z,7.17
2019-01-26T12:26:12.600Z,7.37
2019-01-26T12:27:44.873Z,7.40
2019-01-26T12:29:17.031Z,7.20
2019-01-26T12:30:49.347Z,7.22
2019-01-26T12:32:21.663Z,7.22
2019-01-26T12:33:53.971Z,7.40
2019-01-26T12:35:26.332Z,6.80
2019-01-26T12:36:58.624Z,7.05
2019-01-26T12:38:30.703Z,6.87
2019-01-26T12:40:03.275Z,6.47
2019-01-26T12:41:35.643Z,6.80
2019-01-26T12:43:07.771Z,6.65
2019-01-26T12:44:39.999Z,6.80
2019-01-26T12:46:12.156Z,6.37
2019-01-26T12:47:44.379Z,6.08
2019-01-26T12:49:16.756Z,6.40
2019-01-26T12:50:49.030Z,7.10
2019-01-26T12:52:21.309Z,5.95
2019-01-26T12:53:53.644Z,5.72
2019-01-26T12:55:25.944Z,6.00
2019-01-26T12:56:58.163Z,5.80
2019-01-26T12:58:30.453Z,6.53
2019-01-26T13:00:03.311Z,6.58
2019-01-26T13:01:35.520Z,6.97
2019-01-26T13:03:07.916Z,6.22
2019-01-26T13:04:40.155Z,5.55
2019-01-26T13:06:12.382Z,5.75
2019-01-26T13:07:44.710Z,5.90
2019-01-26T13:09:17.073Z,6.75
2019-01-26T13:10:52.905Z,5.45
2019-01-26T13:12:25.136Z,5.92
2019-01-26T13:13:57.429Z,6.87
2019-01-26T13:15:29.743Z,6.20
2019-01-26T13:17:02.047Z,5.65
2019-01-26T13:18:34.313Z,6.40
2019-01-26T13:20:08.037Z,6.05
2019-01-26T13:21:40.350Z,6.17
2019-01-26T13:23:12.674Z,5.80
2019-01-26T13:24:44.900Z,5.75
2019-01-26T13:26:17.171Z,6.33
2019-01-26T13:27:49.448Z,5.75
2019-01-26T13:29:21.733Z,6.10
2019-01-26T13:30:54.094Z,5.30
2019-01-26T13:32:26.355Z,5.17
2019-01-26T13:33:58.584Z,6.00
2019-01-26T13:35:30.712Z,5.62
2019-01-26T13:37:02.964Z,5.80
2019-01-26T13:38:35.336Z,5.50
2019-01-26T13:40:10.405Z,5.33
2019-01-26T13:41:42.750Z,5.65
2019-01-26T13:43:14.840Z,5.42
2019-01-26T13:44:47.125Z,5.83
2019-01-26T13:46:19.492Z,5.97
2019-01-26T13:47:51.881Z,5.37
2019-01-26T13:49:24.142Z,5.30
2019-01-26T13:50:56.573Z,5.15
2019-01-26T13:52:28.718Z,5.15
2019-01-26T13:54:00.983Z,5.05
2019-01-26T13:55:33.310Z,5.12
2019-01-26T13:57:05.580Z,5.42
2019-01-26T13:58:37.789Z,5.17
2019-01-26T14:00:22.927Z,5.50
2019-01-26T14:01:55.222Z,5.70
2019-01-26T14:03:27.620Z,5.90
2019-01-26T14:04:59.958Z,6.15
2019-01-26T14:06:32.201Z,5.80
2019-01-26T14:08:04.545Z,6.05
2019-01-26T14:09:36.745Z,6.03
2019-01-26T14:11:12.060Z,6.05
2019-01-26T14:12:44.216Z,5.67
2019-01-26T14:14:16.530Z,5.90
2019-01-26T14:15:48.850Z,6.03
2019-01-26T14:17:21.104Z,5.72
2019-01-26T14:18:53.340Z,6.28
2019-01-26T14:20:25.672Z,6.45
2019-01-26T14:21:57.967Z,6.05
2019-01-26T14:23:30.073Z,5.92
2019-01-26T14:25:02.372Z,6.12
2019-01-26T14:26:34.621Z,6.55
2019-01-26T14:28:06.904Z,6.08
2019-01-26T14:29:39.158Z,5.90
2019-01-26T14:31:11.567Z,5.90
2019-01-26T14:32:43.687Z,6.40
2019-01-26T14:34:15.775Z,6.03
2019-01-26T14:35:48.115Z,6.00
2019-01-26T14:37:20.408Z,6.65
2019-01-26T14:38:52.508Z,6.00
2019-01-26T14:40:24.902Z,6.62
2019-01-26T14:41:57.167Z,5.83
2019-01-26T14:43:29.428Z,5.97
2019-01-26T14:45:01.688Z,5.37
2019-01-26T14:46:33.951Z,6.03
2019-01-26T14:48:06.211Z,6.30
2019-01-26T14:49:38.569Z,5.67
2019-01-26T14:51:10.754Z,6.30
2019-01-26T14:52:43.090Z,6.55
2019-01-26T14:54:15.247Z,6.30
2019-01-26T14:55:47.677Z,5.75
2019-01-26T14:57:19.941Z,6.50
2019-01-26T14:58:52.139Z,6.70
2019-01-26T15:00:29.412Z,6.20
2019-01-26T15:02:01.573Z,6.67
2019-01-26T15:03:33.829Z,6.85
2019-01-26T15:05:06.284Z,6.28
2019-01-26T15:06:38.414Z,6.58
2019-01-26T15:08:10.556Z,6.58
2019-01-26T15:09:42.890Z,6.05
2019-01-26T15:11:15.088Z,5.97
2019-01-26T15:12:47.347Z,6.40
2019-01-26T15:14:19.556Z,6.03
2019-01-26T15:15:51.940Z,6.15
2019-01-26T15:17:24.213Z,6.70
2019-01-26T15:18:56.518Z,6.60
2019-01-26T15:20:31.302Z,7.00
2019-01-26T15:22:03.707Z,6.85
2019-01-26T15:23:36.101Z,6.83
2019-01-26T15:25:08.435Z,6.55
2019-01-26T15:26:40.824Z,6.87
2019-01-26T15:28:13.182Z,6.55
2019-01-26T15:29:45.607Z,6.10
2019-01-26T15:31:17.864Z,6.78
2019-01-26T15:32:50.168Z,6.53
2019-01-26T15:34:22.647Z,6.85
2019-01-26T15:35:54.934Z,6.45
2019-01-26T15:37:27.190Z,7.33
2019-01-26T15:38:59.617Z,6.78
2019-01-26T15:40:31.944Z,7.78
2019-01-26T15:42:04.400Z,7.47
2019-01-26T15:43:36.767Z,7.37
2019-01-26T15:45:14.592Z,7.40
2019-01-26T15:46:46.859Z,7.50
2019-01-26T15:48:19.068Z,7.05
2019-01-26T15:49:51.181Z,7.42
2019-01-26T15:51:23.415Z,7.17
2019-01-26T15:52:55.660Z,9.23
2019-01-26T15:54:27.937Z,7.35
2019-01-26T15:56:00.237Z,7.78
2019-01-26T15:57:32.411Z,6.97
2019-01-26T15:59:04.672Z,7.37
2019-01-26T16:00:39.607Z,7.00
2019-01-26T16:02:11.864Z,8.55
2019-01-26T16:03:44.048Z,6.90
2019-01-26T16:05:16.277Z,8.43
2019-01-26T16:06:48.546Z,7.10
2019-01-26T16:08:20.842Z,7.40
2019-01-26T16:09:53.189Z,7.10
2019-01-26T16:11:25.286Z,7.20
2019-01-26T16:12:57.585Z,8.55
2019-01-26T16:14:29.726Z,8.83
2019-01-26T16:16:01.811Z,8.18
2019-01-26T16:17:34.149Z,10.93
2019-01-26T16:19:06.381Z,12.07
2019-01-26T16:20:38.724Z,9.75
2019-01-26T16:22:11.047Z,9.70
2019-01-26T16:23:43.306Z,7.75
2019-01-26T16:25:15.657Z,8.08
2019-01-26T16:26:47.926Z,8.28
2019-01-26T16:28:20.164Z,7.92
2019-01-26T16:29:52.450Z,7.55
2019-01-26T16:31:24.774Z,8.40
2019-01-26T16:32:57.004Z,8.93
2019-01-26T16:34:29.292Z,8.98
2019-01-26T16:36:01.396Z,8.78
2019-01-26T16:37:33.488Z,8.25
2019-01-26T16:39:08.551Z,8.23
2019-01-26T16:40:40.760Z,9.03
2019-01-26T16:42:13.002Z,9.63
2019-01-26T16:43:45.253Z,9.60
2019-01-26T16:45:19.952Z,9.43
2019-01-26T16:46:52.338Z,9.25
2019-01-26T16:48:24.591Z,10.80
2019-01-26T16:49:56.663Z,9.00
2019-01-26T16:51:28.894Z,9.95
2019-01-26T16:53:01.037Z,9.50
2019-01-26T16:54:33.300Z,9.68
2019-01-26T16:56:05.592Z,9.15
2019-01-26T16:57:38.019Z,8.60
2019-01-26T16:59:10.267Z,9.10
2019-01-26T17:00:47.240Z,10.58
2019-01-26T17:02:19.481Z,8.68
2019-01-26T17:03:51.637Z,8.55
2019-01-26T17:05:25.865Z,8.60
2019-01-26T17:06:58.077Z,8.90
2019-01-26T17:08:30.405Z,8.95
2019-01-26T17:10:03.309Z,8.48
2019-01-26T17:11:35.604Z,8.68
2019-01-26T17:13:07.716Z,7.10
2019-01-26T17:14:39.935Z,7.90
2019-01-26T17:16:12.192Z,8.00
2019-01-26T17:17:44.487Z,6.78
2019-01-26T17:19:16.714Z,6.65
2019-01-26T17:20:48.957Z,6.75
2019-01-26T17:22:21.192Z,6.08
2019-01-26T17:23:53.460Z,6.40
2019-01-26T17:25:25.625Z,6.60
2019-01-26T17:26:57.839Z,6.42
2019-01-26T17:28:30.000Z,6.42
2019-01-26T17:30:02.836Z,7.58
2019-01-26T17:31:35.092Z,7.40
2019-01-26T17:33:07.928Z,6.97
2019-01-26T17:34:40.081Z,7.33
2019-01-26T17:36:12.411Z,7.08
2019-01-26T17:37:44.705Z,6.22
2019-01-26T17:39:16.862Z,6.67
2019-01-26T17:40:54.292Z,6.58
2019-01-26T17:42:23.079Z,6.35
2019-01-26T17:43:55.346Z,6.20
2019-01-26T17:45:27.574Z,5.92
2019-01-26T17:46:59.839Z,6.28
2019-01-26T17:48:35.448Z,6.00
2019-01-26T17:50:10.610Z,5.20
2019-01-26T17:51:42.766Z,5.67
2019-01-26T17:53:14.909Z,5.67
2019-01-26T17:54:47.329Z,5.30
2019-01-26T17:56:19.604Z,5.72
2019-01-26T17:57:51.739Z,6.10
2019-01-26T17:59:24.028Z,6.47
2019-01-26T18:00:57.717Z,5.83
2019-01-26T18:02:29.910Z,5.60
2019-01-26T18:04:02.143Z,5.70
2019-01-26T18:05:34.369Z,5.60
2019-01-26T18:07:06.502Z,6.15
2019-01-26T18:08:38.759Z,5.62
2019-01-26T18:10:13.525Z,5.40
2019-01-26T18:11:45.767Z,4.85
2019-01-26T18:13:18.046Z,5.03
2019-01-26T18:14:50.170Z,4.97
2019-01-26T18:16:22.456Z,5.10
2019-01-26T18:17:54.539Z,5.10
2019-01-26T18:19:26.794Z,5.42
2019-01-26T18:20:58.909Z,5.17
2019-01-26T18:22:31.194Z,4.97
2019-01-26T18:24:03.544Z,5.03
2019-01-26T18:25:39.585Z,5.17
2019-01-26T18:27:11.848Z,4.58
2019-01-26T18:28:44.176Z,4.75
2019-01-26T18:30:19.320Z,4.72
2019-01-26T18:31:51.603Z,4.53
2019-01-26T18:33:23.870Z,3.72
2019-01-26T18:34:56.243Z,4.50
2019-01-26T18:36:28.609Z,4.20
2019-01-26T18:38:00.874Z,4.67
2019-01-26T18:39:33.147Z,4.60
2019-01-26T18:41:05.397Z,4.25
2019-01-26T18:42:38.241Z,4.45
2019-01-26T18:44:10.496Z,4.25
2019-01-26T18:45:42.823Z,4.40
2019-01-26T18:47:15.050Z,4.28
2019-01-26T18:48:47.294Z,4.30
2019-01-26T18:50:21.595Z,4.08
2019-01-26T18:51:53.847Z,5.78
2019-01-26T18:53:26.067Z,4.30
2019-01-26T18:54:58.212Z,5.00
2019-01-26T18:56:30.508Z,4.65
2019-01-26T18:58:02.886Z,4.40
2019-01-26T18:59:35.330Z,4.03
2019-01-26T19:01:07.655Z,4.40
2019-01-26T19:02:39.840Z,4.05
2019-01-26T19:04:21.578Z,4.28
2019-01-26T19:05:54.862Z,3.95
2019-01-26T19:07:27.137Z,4.40
2019-01-26T19:08:59.367Z,4.25
2019-01-26T19:10:31.682Z,4.05
2019-01-26T19:12:04.068Z,3.90
2019-01-26T19:13:36.393Z,4.40
2019-01-26T19:15:12.136Z,4.20
2019-01-26T19:16:44.309Z,3.98
2019-01-26T19:18:16.584Z,4.00
2019-01-26T19:19:48.950Z,4.30
2019-01-26T19:21:21.251Z,4.60
2019-01-26T19:22:53.588Z,4.50
2019-01-26T19:24:25.843Z,4.35
2019-01-26T19:25:58.149Z,4.08
2019-01-26T19:27:30.425Z,4.15
2019-01-26T19:29:02.903Z,5.08
2019-01-26T19:30:35.221Z,4.78
2019-01-26T19:32:07.348Z,6.17
2019-01-26T19:33:39.630Z,5.30
2019-01-26T19:35:12.038Z,6.08
2019-01-26T19:36:44.299Z,5.55
2019-01-26T19:38:16.611Z,5.28
2019-01-26T19:39:48.845Z,5.20
2019-01-26T19:41:21.191Z,4.72
2019-01-26T19:42:54.053Z,5.85
2019-01-26T19:44:26.171Z,5.67
2019-01-26T19:45:58.453Z,5.85
2019-01-26T19:47:30.724Z,7.00
2019-01-26T19:49:03.107Z,7.00
2019-01-26T19:50:35.378Z,5.53
2019-01-26T19:52:07.588Z,6.35
2019-01-26T19:53:39.730Z,6.20
2019-01-26T19:55:12.448Z,8.25
2019-01-26T19:56:44.593Z,5.53
2019-01-26T19:58:16.853Z,7.03
2019-01-26T19:59:49.158Z,6.08
2019-01-26T20:01:21.418Z,7.85
2019-01-26T20:02:53.531Z,7.70
2019-01-26T20:04:25.818Z,6.58
2019-01-26T20:05:57.955Z,5.72
2019-01-26T20:07:30.257Z,5.25
2019-01-26T20:09:09.329Z,6.30
2019-01-26T20:10:39.015Z,5.08
2019-01-26T20:12:11.274Z,5.92
2019-01-26T20:13:43.380Z,5.55
2019-01-26T20:15:17.106Z,5.62
2019-01-26T20:16:49.340Z,5.95
2019-01-26T20:18:21.649Z,5.50
2019-01-26T20:19:53.863Z,5.70
2019-01-26T20:21:26.086Z,7.90
2019-01-26T20:22:58.361Z,8.53
2019-01-26T20:24:30.657Z,8.85
2019-01-26T20:26:03.954Z,8.75